createdAt,value
2023-03-13T00:01:37.253Z,39.78
2023-03-13T00:06:41.185Z,40.72
2023-03-13T00:11:45.802Z,39.85
2023-03-13T00:16:48.754Z,39.67
2023-03-13T00:21:51.675Z,40.47
2023-03-13T00:26:56.445Z,38.97
2023-03-13T00:31:59.864Z,41.47
2023-03-13T00:37:02.752Z,42.38
2023-03-13T00:42:07.393Z,40.65
2023-03-13T00:47:10.225Z,38.67
2023-03-13T00:52:13.187Z,43.25
2023-03-13T00:57:17.422Z,39.30
2023-03-13T01:02:20.360Z,39.08
2023-03-13T01:07:23.340Z,41.00
2023-03-13T01:12:29.131Z,40.65
2023-03-13T01:17:33.309Z,38.15
2023-03-13T01:22:36.195Z,39.05
2023-03-13T01:27:40.413Z,39.17
2023-03-13T01:32:43.494Z,45.75
2023-03-13T01:37:46.364Z,39.45
2023-03-13T01:42:55.027Z,41.97
2023-03-13T01:47:57.925Z,42.58
2023-03-13T01:53:16.957Z,39.55
2023-03-13T01:58:21.633Z,45.58
2023-03-13T02:03:25.101Z,38.92
2023-03-13T02:08:33.640Z,39.08
2023-03-13T02:13:38.097Z,39.90
2023-03-13T02:18:40.949Z,40.90
2023-03-13T02:23:54.120Z,37.53
2023-03-13T02:28:58.413Z,38.28
2023-03-13T02:34:03.488Z,37.72
2023-03-13T02:39:07.953Z,37.75
2023-03-13T02:44:12.331Z,38.05
2023-03-13T02:49:23.048Z,38.20
2023-03-13T02:54:29.464Z,39.53
2023-03-13T02:59:35.573Z,39.38
2023-03-13T03:04:38.500Z,37.55
2023-03-13T03:09:41.432Z,37.75
2023-03-13T03:14:50.631Z,39.13
2023-03-13T03:19:54.247Z,39.60
2023-03-13T03:24:57.203Z,37.88
2023-03-13T03:30:02.228Z,38.47
2023-03-13T03:35:05.952Z,37.45
2023-03-13T03:40:10.971Z,38.05
2023-03-13T03:45:15.378Z,38.80
2023-03-13T03:50:18.360Z,39.67
2023-03-13T03:55:30.428Z,38.10
2023-03-13T04:00:35.088Z,38.17
2023-03-13T04:05:38.232Z,38.58
2023-03-13T04:10:41.239Z,37.63
2023-03-13T04:15:45.902Z,38.40
2023-03-13T04:20:49.022Z,37.92
2023-03-13T04:25:52.740Z,38.05
2023-03-13T04:30:58.168Z,37.75
2023-03-13T04:36:16.337Z,38.92
2023-03-13T04:41:42.946Z,42.30
2023-03-13T04:47:13.282Z,38.67
2023-03-13T04:52:35.036Z,38.53
2023-03-13T04:57:55.484Z,39.72
2023-03-13T05:03:22.980Z,37.67
2023-03-13T05:08:33.996Z,37.78
2023-03-13T05:13:59.477Z,37.70
2023-03-13T05:19:14.043Z,38.35
2023-03-13T05:24:38.360Z,38.42
2023-03-13T05:29:56.046Z,37.92
2023-03-13T05:35:23.305Z,38.50
2023-03-13T05:40:26.470Z,37.85
2023-03-13T05:45:48.840Z,38.05
2023-03-13T05:51:22.450Z,38.00
2023-03-13T05:56:36.182Z,37.55
2023-03-13T06:02:02.140Z,38.83
2023-03-13T06:07:15.249Z,37.63
2023-03-13T06:12:18.621Z,38.60
2023-03-13T06:17:21.456Z,37.85
2023-03-13T06:22:25.753Z,38.20
2023-03-13T06:27:28.592Z,37.58
2023-03-13T06:32:31.540Z,38.05
2023-03-13T06:37:35.897Z,38.25
2023-03-13T06:42:38.809Z,37.63
2023-03-13T06:47:41.670Z,38.60
2023-03-13T06:52:47.156Z,37.85
2023-03-13T06:57:51.908Z,38.40
2023-03-13T07:02:54.881Z,38.03
2023-03-13T07:07:59.096Z,37.80
2023-03-13T07:13:02.001Z,38.15
2023-03-13T07:18:04.995Z,38.15
2023-03-13T07:23:09.209Z,38.33
2023-03-13T07:28:12.093Z,37.88
2023-03-13T07:33:14.935Z,37.92
2023-03-13T07:38:19.348Z,38.00
2023-03-13T07:43:23.005Z,38.13
2023-03-13T07:48:27.263Z,38.30
2023-03-13T07:53:31.914Z,38.78
2023-03-13T07:58:36.801Z,39.00
2023-03-13T08:03:40.207Z,38.20
2023-03-13T08:08:44.863Z,38.53
2023-03-13T08:13:49.752Z,37.90
2023-03-13T08:18:55.355Z,38.63
2023-03-13T08:24:01.640Z,39.20
2023-03-13T08:29:07.351Z,37.90
2023-03-13T08:34:11.932Z,38.50
2023-03-13T08:39:17.672Z,38.45
2023-03-13T08:44:21.396Z,38.67
2023-03-13T08:49:24.282Z,38.53
2023-03-13T08:54:29.592Z,38.50
2023-03-13T08:59:32.488Z,38.47
2023-03-13T09:04:35.334Z,38.67
2023-03-13T09:09:39.564Z,38.47
2023-03-13T09:14:42.445Z,39.03
2023-03-13T09:19:59.176Z,38.47
2023-03-13T09:25:04.239Z,40.42
2023-03-13T09:30:08.444Z,39.17
2023-03-13T09:35:11.354Z,38.90
2023-03-13T09:40:19.823Z,39.15
2023-03-13T09:45:31.217Z,38.78
2023-03-13T09:50:36.309Z,38.47
2023-03-13T09:55:42.956Z,38.33
2023-03-13T10:00:49.696Z,38.83
2023-03-13T10:05:56.328Z,39.53
2023-03-13T10:11:05.180Z,39.03
2023-03-13T10:16:10.699Z,39.15
2023-03-13T10:21:19.779Z,39.20
2023-03-13T10:26:28.678Z,39.75
2023-03-13T10:31:35.095Z,39.45
2023-03-13T10:36:42.835Z,40.92
2023-03-13T10:41:49.098Z,39.97
2023-03-13T10:46:52.411Z,39.92
2023-03-13T10:51:57.297Z,42.10
2023-03-13T10:57:22.232Z,41.03
2023-03-13T11:02:33.928Z,40.05
2023-03-13T11:07:40.410Z,39.63
2023-03-13T11:12:48.066Z,40.33
2023-03-13T11:17:57.956Z,40.20
2023-03-13T11:23:19.688Z,39.92
2023-03-13T11:28:33.088Z,39.95
2023-03-13T11:33:42.978Z,40.15
2023-03-13T11:38:49.840Z,39.65
2023-03-13T11:44:09.221Z,40.53
2023-03-13T11:49:33.933Z,39.97
2023-03-13T11:54:52.648Z,41.95
2023-03-13T12:00:15.985Z,40.70
2023-03-13T12:05:20.345Z,40.20
2023-03-13T12:10:28.711Z,41.88
2023-03-13T12:15:38.784Z,40.30
2023-03-13T12:20:45.034Z,40.60
2023-03-13T12:25:53.950Z,40.80
2023-03-13T12:31:05.092Z,42.00
2023-03-13T12:36:14.858Z,40.72
2023-03-13T12:41:24.679Z,40.80
2023-03-13T12:46:58.249Z,40.42
2023-03-13T12:52:26.776Z,40.50
2023-03-13T12:58:06.629Z,40.28
2023-03-13T13:03:24.572Z,40.47
2023-03-13T13:08:38.766Z,40.47
2023-03-13T13:13:41.616Z,40.20
2023-03-13T13:18:45.840Z,40.50
2023-03-13T13:23:53.833Z,40.45
2023-03-13T13:28:58.075Z,40.45
2023-03-13T13:34:02.279Z,40.25
2023-03-13T13:39:30.910Z,40.97
2023-03-13T13:44:33.908Z,41.03
2023-03-13T13:49:54.316Z,40.85
2023-03-13T13:54:59.188Z,41.58
2023-03-13T14:00:15.735Z,40.95
2023-03-13T14:05:23.900Z,41.13
2023-03-13T14:10:46.736Z,41.13
2023-03-13T14:15:52.754Z,41.83
2023-03-13T14:20:59.763Z,44.15
2023-03-13T14:26:14.871Z,41.40
2023-03-13T14:31:26.021Z,41.15
2023-03-13T14:36:30.736Z,41.15
2023-03-13T14:41:38.208Z,41.17
2023-03-13T14:46:43.068Z,41.15
2023-03-13T14:51:50.921Z,42.13
2023-03-13T14:57:05.117Z,41.72
2023-03-13T15:02:18.229Z,41.17
2023-03-13T15:07:23.476Z,41.47
2023-03-13T15:12:26.421Z,42.10
2023-03-13T15:17:29.848Z,41.85
2023-03-13T15:22:37.162Z,41.13
2023-03-13T15:27:40.142Z,42.50
2023-03-13T15:32:46.469Z,41.10
2023-03-13T15:37:51.274Z,43.47
2023-03-13T15:42:55.927Z,41.33
2023-03-13T15:47:58.858Z,41.80
2023-03-13T15:53:03.954Z,53.00
2023-03-13T15:58:06.811Z,41.35
2023-03-13T16:03:14.885Z,42.08
2023-03-13T16:08:34.660Z,41.45
2023-03-13T16:13:38.463Z,42.30
2023-03-13T16:18:41.311Z,41.63
2023-03-13T16:23:45.670Z,43.28
2023-03-13T16:28:49.036Z,42.03
2023-03-13T16:33:54.102Z,42.63
2023-03-13T16:38:59.560Z,44.05
2023-03-13T16:44:02.678Z,42.75
2023-03-13T16:49:06.231Z,42.28
2023-03-13T16:54:12.069Z,41.75
2023-03-13T16:59:17.747Z,41.33
2023-03-13T17:04:20.750Z,41.80
2023-03-13T17:09:24.946Z,42.85
2023-03-13T17:14:28.868Z,41.47
2023-03-13T17:19:32.264Z,41.47
2023-03-13T17:24:36.700Z,41.75
2023-03-13T17:29:39.575Z,42.55
2023-03-13T17:34:43.131Z,42.42
2023-03-13T17:39:48.684Z,43.42
2023-03-13T17:44:51.657Z,47.03
2023-03-13T17:49:54.601Z,49.58
2023-03-13T17:55:00.180Z,41.92
2023-03-13T18:00:03.477Z,41.35
2023-03-13T18:05:14.698Z,41.80
2023-03-13T18:10:21.692Z,45.10
2023-03-13T18:15:33.552Z,43.05
2023-03-13T18:20:36.475Z,41.58
2023-03-13T18:25:47.788Z,42.83
2023-03-13T18:30:50.815Z,42.85
2023-03-13T18:35:54.840Z,42.85
2023-03-13T18:40:59.339Z,41.50
2023-03-13T18:46:02.532Z,42.22
2023-03-13T18:51:05.778Z,46.05
2023-03-13T18:56:20.525Z,41.83
2023-03-13T19:01:25.463Z,40.63
2023-03-13T19:06:47.948Z,41.05
2023-03-13T19:11:52.321Z,43.85
2023-03-13T19:16:56.437Z,46.47
2023-03-13T19:21:59.451Z,41.47
2023-03-13T19:27:17.005Z,39.83
2023-03-13T19:32:20.215Z,39.15
2023-03-13T19:37:23.192Z,38.65
2023-03-13T19:42:28.476Z,39.47
2023-03-13T19:47:31.574Z,39.30
2023-03-13T19:52:34.547Z,39.50
2023-03-13T19:57:53.014Z,40.08
2023-03-13T20:02:58.843Z,38.70
2023-03-13T20:08:02.856Z,39.55
2023-03-13T20:13:07.040Z,39.50
2023-03-13T20:18:09.992Z,38.75
2023-03-13T20:23:12.852Z,39.80
2023-03-13T20:28:21.140Z,39.38
2023-03-13T20:33:24.087Z,38.97
2023-03-13T20:38:29.937Z,38.85
2023-03-13T20:43:35.247Z,40.20
2023-03-13T20:48:39.776Z,39.22
2023-03-13T20:53:43.291Z,39.08
2023-03-13T20:58:47.625Z,39.25
2023-03-13T21:03:50.617Z,38.78
2023-03-13T21:08:53.492Z,38.65
2023-03-13T21:13:57.834Z,38.42
2023-03-13T21:19:00.855Z,38.50
2023-03-13T21:24:03.705Z,38.47
2023-03-13T21:29:10.892Z,37.70
2023-03-13T21:34:13.841Z,39.15
2023-03-13T21:39:16.718Z,41.78
2023-03-13T21:44:20.950Z,38.13
2023-03-13T21:49:23.987Z,38.50
2023-03-13T21:54:27.084Z,38.03
2023-03-13T21:59:31.985Z,38.20
2023-03-13T22:04:34.865Z,38.38
2023-03-13T22:09:37.726Z,38.03
2023-03-13T22:14:41.987Z,37.75
2023-03-13T22:19:44.885Z,38.47
2023-03-13T22:24:47.750Z,38.05
2023-03-13T22:29:51.976Z,38.75
2023-03-13T22:34:54.862Z,37.83
2023-03-13T22:39:57.746Z,38.22
2023-03-13T22:45:01.951Z,37.95
2023-03-13T22:50:05.266Z,37.65
2023-03-13T22:55:08.976Z,38.42
2023-03-13T23:00:14.667Z,38.58
2023-03-13T23:05:17.814Z,38.67
2023-03-13T23:10:20.769Z,38.13
2023-03-13T23:15:26.590Z,38.38
2023-03-13T23:20:32.517Z,38.28
2023-03-13T23:25:35.449Z,38.08
2023-03-13T23:30:40.662Z,38.40
2023-03-13T23:35:45.053Z,38.90
2023-03-13T23:40:48.181Z,37.78
2023-03-13T23:45:52.409Z,37.80
2023-03-13T23:50:55.275Z,38.08
2023-03-13T23:55:59.272Z,37.95
